DAL6299 KDCA-KLGA
Flight info
| Callsign | DAL6299 |
|---|---|
| Flight time | 0h 40m |
| Altitude | 19000 |
| Route | DOCTR5 AGARD SPEAK PROUD2 |
| Aircraft | B738/M-SDE2E3FGHIRWXY/LB1 |
Departure
| Time | 2026-05-04 02:26 |
|---|---|
| Airport | Ronald Reagan Washington National Airport (KDCA) |
Arrival
| Time | 2026-05-04 03:07 |
|---|---|
| Airport | LaGuardia Airport (KLGA) |
| Time | Latitude | Longitude | Altitude | Speed | Heading |
|---|---|---|---|---|---|
| 2026-05-04 02:00 | 38.85247 | -77.04157 | 26 ft | 0 kts | 163° |
| 2026-05-04 02:18 | 38.85248 | -77.04158 | 26 ft | 1 kts | 163° |
| 2026-05-04 02:18 | 38.85262 | -77.04163 | 26 ft | 2 kts | 165° |
| 2026-05-04 02:19 | 38.85277 | -77.04168 | 26 ft | 2 kts | 164° |
| 2026-05-04 02:19 | 38.85289 | -77.04172 | 26 ft | 1 kts | 165° |
| 2026-05-04 02:19 | 38.85296 | -77.04177 | 26 ft | 1 kts | 112° |
| 2026-05-04 02:19 | 38.85297 | -77.04188 | 27 ft | 0 kts | 63° |
| 2026-05-04 02:20 | 38.85296 | -77.04190 | 27 ft | 0 kts | 62° |
| 2026-05-04 02:21 | 38.85296 | -77.04188 | 27 ft | 0 kts | 62° |
| 2026-05-04 02:21 | 38.85307 | -77.04146 | 25 ft | 8 kts | 73° |
| 2026-05-04 02:22 | 38.85325 | -77.04064 | 24 ft | 9 kts | 84° |
| 2026-05-04 02:22 | 38.85278 | -77.03994 | 22 ft | 13 kts | 165° |
| 2026-05-04 02:22 | 38.85184 | -77.03979 | 22 ft | 14 kts | 175° |
| 2026-05-04 02:22 | 38.85082 | -77.03970 | 22 ft | 15 kts | 175° |
| 2026-05-04 02:23 | 38.84977 | -77.03959 | 22 ft | 14 kts | 176° |
| 2026-05-04 02:23 | 38.84882 | -77.03949 | 21 ft | 13 kts | 175° |
| 2026-05-04 02:23 | 38.84792 | -77.03938 | 21 ft | 12 kts | 171° |
| 2026-05-04 02:23 | 38.84719 | -77.03886 | 20 ft | 12 kts | 153° |
| 2026-05-04 02:24 | 38.84627 | -77.03863 | 18 ft | 14 kts | 176° |
| 2026-05-04 02:24 | 38.84526 | -77.03853 | 16 ft | 14 kts | 175° |
| 2026-05-04 02:24 | 38.84431 | -77.03843 | 16 ft | 12 kts | 176° |
| 2026-05-04 02:24 | 38.84342 | -77.03835 | 16 ft | 12 kts | 175° |
| 2026-05-04 02:25 | 38.84275 | -77.03826 | 15 ft | 2 kts | 169° |
| 2026-05-04 02:25 | 38.84245 | -77.03813 | 15 ft | 11 kts | 152° |
| 2026-05-04 02:25 | 38.84197 | -77.03715 | 14 ft | 11 kts | 80° |
| 2026-05-04 02:25 | 38.84314 | -77.03692 | 16 ft | 47 kts | 356° |
| 2026-05-04 02:26 | 38.84964 | -77.03757 | 19 ft | 137 kts | 356° |
| 2026-05-04 02:26 | 38.86129 | -77.03856 | 310 ft | 182 kts | 357° |
| 2026-05-04 02:26 | 38.87334 | -77.04140 | 1217 ft | 183 kts | 334° |
| 2026-05-04 02:26 | 38.88341 | -77.05222 | 1784 ft | 199 kts | 314° |
| 2026-05-04 02:27 | 38.89443 | -77.06490 | 2231 ft | 227 kts | 319° |
| 2026-05-04 02:27 | 38.90488 | -77.08022 | 3050 ft | 238 kts | 297° |
| 2026-05-04 02:27 | 38.91258 | -77.09911 | 4002 ft | 247 kts | 298° |
| 2026-05-04 02:27 | 38.92414 | -77.11543 | 5034 ft | 257 kts | 322° |
| 2026-05-04 02:28 | 38.93891 | -77.12738 | 6312 ft | 253 kts | 325° |
| 2026-05-04 02:28 | 38.95395 | -77.13913 | 7293 ft | 259 kts | 329° |
| 2026-05-04 02:28 | 38.97120 | -77.14576 | 8231 ft | 271 kts | 352° |
| 2026-05-04 02:28 | 38.99004 | -77.14415 | 9240 ft | 279 kts | 7° |
| 2026-05-04 02:29 | 39.00813 | -77.13433 | 10190 ft | 292 kts | 31° |
| 2026-05-04 02:29 | 39.02320 | -77.11719 | 11221 ft | 297 kts | 45° |
| 2026-05-04 02:29 | 39.03400 | -77.09413 | 12086 ft | 310 kts | 64° |
| 2026-05-04 02:29 | 39.03944 | -77.06685 | 12627 ft | 332 kts | 82° |
| 2026-05-04 02:30 | 39.03814 | -77.03587 | 12956 ft | 358 kts | 95° |
| 2026-05-04 02:30 | 39.03515 | -77.00412 | 13665 ft | 366 kts | 94° |
| 2026-05-04 02:30 | 39.03264 | -76.97089 | 14352 ft | 374 kts | 93° |
| 2026-05-04 02:30 | 39.03021 | -76.93772 | 15127 ft | 378 kts | 93° |
| 2026-05-04 02:31 | 39.02762 | -76.90367 | 15833 ft | 385 kts | 93° |
| 2026-05-04 02:31 | 39.02502 | -76.86958 | 16532 ft | 390 kts | 93° |
| 2026-05-04 02:31 | 39.02243 | -76.83498 | 17209 ft | 395 kts | 93° |
| 2026-05-04 02:31 | 39.01978 | -76.79959 | 17909 ft | 399 kts | 93° |
| 2026-05-04 02:32 | 39.01710 | -76.76405 | 18545 ft | 404 kts | 93° |
| 2026-05-04 02:32 | 39.01434 | -76.72765 | 19177 ft | 410 kts | 92° |
| 2026-05-04 02:32 | 39.01156 | -76.69120 | 19777 ft | 415 kts | 92° |
| 2026-05-04 02:32 | 39.00903 | -76.65419 | 20367 ft | 419 kts | 89° |
| 2026-05-04 02:33 | 39.00866 | -76.61668 | 20955 ft | 421 kts | 85° |
| 2026-05-04 02:33 | 39.00922 | -76.57877 | 21513 ft | 426 kts | 85° |
| 2026-05-04 02:33 | 39.00952 | -76.54076 | 22016 ft | 432 kts | 85° |
| 2026-05-04 02:33 | 39.00958 | -76.50223 | 22567 ft | 436 kts | 85° |
| 2026-05-04 02:34 | 39.00963 | -76.46300 | 23067 ft | 440 kts | 85° |
| 2026-05-04 02:34 | 39.00980 | -76.42348 | 23566 ft | 444 kts | 84° |
| 2026-05-04 02:34 | 39.01201 | -76.38426 | 24004 ft | 443 kts | 78° |
| 2026-05-04 02:34 | 39.01618 | -76.34487 | 24055 ft | 446 kts | 77° |
| 2026-05-04 02:35 | 39.02047 | -76.30513 | 24064 ft | 447 kts | 78° |
| 2026-05-04 02:35 | 39.02439 | -76.26566 | 24064 ft | 445 kts | 78° |
| 2026-05-04 02:35 | 39.02821 | -76.22627 | 24065 ft | 444 kts | 78° |
| 2026-05-04 02:35 | 39.03206 | -76.18702 | 24065 ft | 444 kts | 78° |
| 2026-05-04 02:36 | 39.03595 | -76.14755 | 24065 ft | 444 kts | 78° |
| 2026-05-04 02:36 | 39.03977 | -76.10833 | 24066 ft | 444 kts | 78° |
| 2026-05-04 02:36 | 39.04354 | -76.06941 | 24064 ft | 444 kts | 78° |
| 2026-05-04 02:36 | 39.04713 | -76.02956 | 24025 ft | 445 kts | 79° |
| 2026-05-04 02:37 | 39.04975 | -75.98992 | 23931 ft | 447 kts | 82° |
| 2026-05-04 02:37 | 39.05078 | -75.94989 | 23887 ft | 446 kts | 86° |
| 2026-05-04 02:37 | 39.05042 | -75.91014 | 24055 ft | 452 kts | 85° |
| 2026-05-04 02:37 | 39.05175 | -75.86943 | 24058 ft | 450 kts | 82° |
| 2026-05-04 02:38 | 39.05392 | -75.82944 | 24056 ft | 446 kts | 81° |
| 2026-05-04 02:38 | 39.05816 | -75.79042 | 24051 ft | 438 kts | 68° |
| 2026-05-04 02:38 | 39.06900 | -75.75444 | 24064 ft | 430 kts | 58° |
| 2026-05-04 02:38 | 39.08215 | -75.72059 | 24049 ft | 426 kts | 53° |
| 2026-05-04 02:39 | 39.09908 | -75.68980 | 24049 ft | 414 kts | 40° |
| 2026-05-04 02:39 | 39.11900 | -75.66375 | 24047 ft | 410 kts | 36° |
| 2026-05-04 02:39 | 39.13947 | -75.63785 | 24042 ft | 411 kts | 37° |
| 2026-05-04 02:39 | 39.15934 | -75.61167 | 24042 ft | 411 kts | 38° |
| 2026-05-04 02:40 | 39.17938 | -75.58504 | 24044 ft | 411 kts | 38° |
| 2026-05-04 02:40 | 39.19914 | -75.55890 | 24044 ft | 411 kts | 38° |
| 2026-05-04 02:40 | 39.21923 | -75.53302 | 24043 ft | 408 kts | 34° |
| 2026-05-04 02:40 | 39.24094 | -75.51021 | 24045 ft | 401 kts | 27° |
| 2026-05-04 02:41 | 39.26369 | -75.48968 | 24043 ft | 400 kts | 26° |
| 2026-05-04 02:41 | 39.28657 | -75.46905 | 24042 ft | 401 kts | 27° |
| 2026-05-04 02:41 | 39.30921 | -75.44840 | 24048 ft | 402 kts | 27° |
| 2026-05-04 02:41 | 39.33223 | -75.42754 | 24047 ft | 401 kts | 26° |
| 2026-05-04 02:42 | 39.35487 | -75.40722 | 24047 ft | 401 kts | 26° |
| 2026-05-04 02:42 | 39.37793 | -75.38658 | 24049 ft | 404 kts | 26° |
| 2026-05-04 02:42 | 39.40117 | -75.36584 | 24045 ft | 412 kts | 26° |
| 2026-05-04 02:42 | 39.42487 | -75.34470 | 24042 ft | 419 kts | 27° |
| 2026-05-04 02:43 | 39.44923 | -75.32297 | 23611 ft | 433 kts | 27° |
| 2026-05-04 02:43 | 39.47357 | -75.30115 | 22953 ft | 426 kts | 28° |
| 2026-05-04 02:43 | 39.49746 | -75.27960 | 22293 ft | 418 kts | 28° |
| 2026-05-04 02:43 | 39.52090 | -75.25832 | 22062 ft | 408 kts | 28° |
| 2026-05-04 02:44 | 39.54399 | -75.23672 | 22042 ft | 415 kts | 29° |
| 2026-05-04 02:44 | 39.56746 | -75.21467 | 22035 ft | 420 kts | 29° |
| 2026-05-04 02:44 | 39.59131 | -75.19226 | 22035 ft | 421 kts | 29° |
| 2026-05-04 02:44 | 39.61483 | -75.17017 | 22034 ft | 421 kts | 29° |
| 2026-05-04 02:45 | 39.63834 | -75.14808 | 22034 ft | 420 kts | 29° |
| 2026-05-04 02:45 | 39.66218 | -75.12568 | 21873 ft | 423 kts | 29° |
| 2026-05-04 02:45 | 39.68589 | -75.10353 | 21384 ft | 414 kts | 28° |
| 2026-05-04 02:45 | 39.70920 | -75.08321 | 20758 ft | 405 kts | 26° |
| 2026-05-04 02:46 | 39.73262 | -75.06348 | 20102 ft | 398 kts | 26° |
| 2026-05-04 02:46 | 39.75539 | -75.04406 | 19457 ft | 397 kts | 27° |
| 2026-05-04 02:46 | 39.77860 | -75.02410 | 18790 ft | 397 kts | 27° |
| 2026-05-04 02:46 | 39.80118 | -75.00460 | 18135 ft | 391 kts | 27° |
| 2026-05-04 02:47 | 39.82377 | -74.98511 | 17457 ft | 385 kts | 27° |
| 2026-05-04 02:47 | 39.84555 | -74.96638 | 16803 ft | 379 kts | 27° |
| 2026-05-04 02:47 | 39.86722 | -74.94730 | 16219 ft | 373 kts | 28° |
| 2026-05-04 02:47 | 39.88831 | -74.92806 | 15607 ft | 372 kts | 29° |
| 2026-05-04 02:48 | 39.90921 | -74.90811 | 14963 ft | 371 kts | 32° |
| 2026-05-04 02:48 | 39.92834 | -74.88605 | 14331 ft | 369 kts | 39° |
| 2026-05-04 02:48 | 39.94591 | -74.86189 | 13711 ft | 364 kts | 41° |
| 2026-05-04 02:48 | 39.96272 | -74.83826 | 13161 ft | 357 kts | 41° |
| 2026-05-04 02:49 | 39.97936 | -74.81493 | 12770 ft | 345 kts | 41° |
| 2026-05-04 02:49 | 39.99535 | -74.79232 | 12515 ft | 330 kts | 41° |
| 2026-05-04 02:49 | 40.01052 | -74.77071 | 12371 ft | 318 kts | 41° |
| 2026-05-04 02:49 | 40.02548 | -74.74944 | 12252 ft | 320 kts | 41° |
| 2026-05-04 02:50 | 40.04048 | -74.72807 | 12127 ft | 320 kts | 41° |
| 2026-05-04 02:50 | 40.05548 | -74.70656 | 12027 ft | 318 kts | 41° |
| 2026-05-04 02:50 | 40.07020 | -74.68542 | 12018 ft | 318 kts | 41° |
| 2026-05-04 02:50 | 40.08498 | -74.66421 | 12005 ft | 318 kts | 41° |
| 2026-05-04 02:51 | 40.09989 | -74.64278 | 11992 ft | 318 kts | 41° |
| 2026-05-04 02:51 | 40.11484 | -74.62128 | 11980 ft | 318 kts | 41° |
| 2026-05-04 02:51 | 40.12958 | -74.60002 | 11932 ft | 310 kts | 41° |
| 2026-05-04 02:51 | 40.14364 | -74.57968 | 11685 ft | 291 kts | 41° |
| 2026-05-04 02:52 | 40.15677 | -74.56069 | 11498 ft | 278 kts | 40° |
| 2026-05-04 02:52 | 40.16958 | -74.54234 | 11301 ft | 275 kts | 40° |
| 2026-05-04 02:52 | 40.18263 | -74.52358 | 11100 ft | 276 kts | 40° |
| 2026-05-04 02:52 | 40.19547 | -74.50500 | 10902 ft | 277 kts | 41° |
| 2026-05-04 02:53 | 40.20860 | -74.48683 | 10703 ft | 275 kts | 37° |
| 2026-05-04 02:53 | 40.22243 | -74.46967 | 10503 ft | 275 kts | 36° |
| 2026-05-04 02:53 | 40.23628 | -74.45231 | 10256 ft | 273 kts | 37° |
| 2026-05-04 02:53 | 40.24969 | -74.43533 | 10019 ft | 269 kts | 37° |
| 2026-05-04 02:54 | 40.26310 | -74.41840 | 9824 ft | 268 kts | 37° |
| 2026-05-04 02:54 | 40.27659 | -74.40138 | 9624 ft | 269 kts | 37° |
| 2026-05-04 02:54 | 40.28990 | -74.38451 | 9427 ft | 270 kts | 37° |
| 2026-05-04 02:54 | 40.30336 | -74.36752 | 9227 ft | 269 kts | 37° |
| 2026-05-04 02:55 | 40.33048 | -74.33321 | 8823 ft | 270 kts | 38° |
| 2026-05-04 02:55 | 40.34385 | -74.31628 | 8624 ft | 269 kts | 38° |
| 2026-05-04 02:55 | 40.35720 | -74.29936 | 8415 ft | 269 kts | 38° |
| 2026-05-04 02:56 | 40.37060 | -74.28237 | 8164 ft | 268 kts | 38° |
| 2026-05-04 02:56 | 40.38408 | -74.26524 | 7911 ft | 267 kts | 38° |
| 2026-05-04 02:56 | 40.39724 | -74.24854 | 7663 ft | 266 kts | 38° |
| 2026-05-04 02:56 | 40.41054 | -74.23164 | 7413 ft | 266 kts | 38° |
| 2026-05-04 02:57 | 40.42390 | -74.21465 | 7160 ft | 264 kts | 38° |
| 2026-05-04 02:57 | 40.43680 | -74.19822 | 6908 ft | 258 kts | 38° |
| 2026-05-04 02:57 | 40.44953 | -74.18201 | 6657 ft | 253 kts | 38° |
| 2026-05-04 02:57 | 40.46211 | -74.16601 | 6408 ft | 251 kts | 38° |
| 2026-05-04 02:58 | 40.47464 | -74.15005 | 6196 ft | 249 kts | 38° |
| 2026-05-04 02:58 | 40.48707 | -74.13421 | 6033 ft | 250 kts | 38° |
| 2026-05-04 02:58 | 40.49929 | -74.11860 | 5897 ft | 242 kts | 38° |
| 2026-05-04 02:58 | 40.51130 | -74.10329 | 5701 ft | 239 kts | 38° |
| 2026-05-04 02:59 | 40.52350 | -74.08947 | 5464 ft | 228 kts | 27° |
| 2026-05-04 02:59 | 40.53694 | -74.07836 | 5210 ft | 228 kts | 25° |
| 2026-05-04 02:59 | 40.55014 | -74.06724 | 4978 ft | 222 kts | 26° |
| 2026-05-04 02:59 | 40.56308 | -74.05632 | 4719 ft | 222 kts | 26° |
| 2026-05-04 03:00 | 40.57597 | -74.04539 | 4460 ft | 218 kts | 26° |
| 2026-05-04 03:00 | 40.58866 | -74.03464 | 4207 ft | 217 kts | 26° |
| 2026-05-04 03:00 | 40.60132 | -74.02390 | 3949 ft | 211 kts | 26° |
| 2026-05-04 03:00 | 40.61309 | -74.01386 | 3724 ft | 200 kts | 26° |
| 2026-05-04 03:01 | 40.62487 | -74.00390 | 3583 ft | 200 kts | 26° |
| 2026-05-04 03:01 | 40.63649 | -73.99406 | 3515 ft | 198 kts | 26° |
| 2026-05-04 03:01 | 40.64777 | -73.98463 | 3478 ft | 189 kts | 25° |
| 2026-05-04 03:01 | 40.65889 | -73.97542 | 3479 ft | 189 kts | 25° |
| 2026-05-04 03:02 | 40.67001 | -73.96619 | 3478 ft | 190 kts | 25° |
| 2026-05-04 03:02 | 40.68128 | -73.95682 | 3477 ft | 190 kts | 25° |
| 2026-05-04 03:02 | 40.69243 | -73.94756 | 3476 ft | 190 kts | 25° |
| 2026-05-04 03:02 | 40.70308 | -73.93713 | 3482 ft | 193 kts | 39° |
| 2026-05-04 03:03 | 40.71040 | -73.92226 | 3714 ft | 201 kts | 61° |
| 2026-05-04 03:03 | 40.71393 | -73.90444 | 3527 ft | 204 kts | 79° |
| 2026-05-04 03:03 | 40.71399 | -73.88631 | 3114 ft | 189 kts | 94° |
| 2026-05-04 03:03 | 40.71194 | -73.87005 | 2679 ft | 176 kts | 103° |
| 2026-05-04 03:04 | 40.70923 | -73.85471 | 2193 ft | 170 kts | 95° |
| 2026-05-04 03:04 | 40.71014 | -73.83973 | 1810 ft | 161 kts | 69° |
| 2026-05-04 03:04 | 40.71512 | -73.82715 | 1555 ft | 152 kts | 47° |
| 2026-05-04 03:04 | 40.72282 | -73.81817 | 1348 ft | 150 kts | 25° |
| 2026-05-04 03:05 | 40.73275 | -73.81412 | 1184 ft | 148 kts | 3° |
| 2026-05-04 03:05 | 40.74300 | -73.81516 | 987 ft | 150 kts | 341° |
| 2026-05-04 03:05 | 40.75186 | -73.82154 | 813 ft | 147 kts | 318° |
| 2026-05-04 03:05 | 40.75918 | -73.83104 | 565 ft | 145 kts | 306° |
| 2026-05-04 03:06 | 40.76478 | -73.84173 | 301 ft | 142 kts | 297° |
| 2026-05-04 03:06 | 40.76996 | -73.85277 | 103 ft | 141 kts | 299° |
| 2026-05-04 03:06 | 40.77513 | -73.86356 | 10 ft | 124 kts | 298° |
| 2026-05-04 03:06 | 40.77815 | -73.87013 | 10 ft | 52 kts | 301° |
| 2026-05-04 03:07 | 40.77914 | -73.87238 | 12 ft | 13 kts | 274° |
| 2026-05-04 03:07 | 40.77880 | -73.87350 | 13 ft | 13 kts | 232° |
| 2026-05-04 03:07 | 40.77802 | -73.87402 | 13 ft | 11 kts | 168° |
| 2026-05-04 03:07 | 40.77772 | -73.87312 | 13 ft | 13 kts | 94° |
| 2026-05-04 03:08 | 40.77718 | -73.87155 | 13 ft | 19 kts | 122° |
| 2026-05-04 03:08 | 40.77661 | -73.87034 | 13 ft | 13 kts | 121° |
| 2026-05-04 03:08 | 40.77609 | -73.86925 | 12 ft | 14 kts | 122° |
| 2026-05-04 03:08 | 40.77554 | -73.86812 | 12 ft | 14 kts | 126° |
| 2026-05-04 03:09 | 40.77490 | -73.86700 | 13 ft | 15 kts | 124° |
| 2026-05-04 03:09 | 40.77430 | -73.86575 | 12 ft | 16 kts | 122° |
| 2026-05-04 03:09 | 40.77367 | -73.86443 | 11 ft | 17 kts | 122° |
| 2026-05-04 03:09 | 40.77313 | -73.86334 | 10 ft | 12 kts | 131° |
| 2026-05-04 03:10 | 40.77234 | -73.86286 | 10 ft | 12 kts | 156° |
| 2026-05-04 03:10 | 40.77175 | -73.86200 | 10 ft | 12 kts | 124° |
| 2026-05-04 03:10 | 40.77121 | -73.86146 | 10 ft | 8 kts | 184° |
| 2026-05-04 03:10 | 40.77072 | -73.86175 | 11 ft | 6 kts | 180° |
| 2026-05-04 03:11 | 40.77046 | -73.86151 | 11 ft | 2 kts | 130° |
| 2026-05-04 03:11 | 40.77043 | -73.86146 | 11 ft | 0 kts | 129° |